KMML/MML METAR and TAF weather

Enter ICAO airport designator
Station Type Date Time Source
KMML METAR 2019/02/22 21:56 UTC NOAA

KMML 222156Z AUTO 11010KT 10SM -SN FEW028 BKN042 OVC050 M06/M09 A3023 RMK AO2 SNB56 SLPNO P0000 T10561089 FZRANO


Station Type Date Time Source
KMML Decoded METAR 2019/02/22 21:56 UTC NOAA

Marshall, Southwest Minnesota Regional Airport - Marshall/Ryan Field, MN, United States (KMML) 44-27N 095-49W
Feb 22, 2019 - 04:56 PM EST / 2019.02.22 2156 UTC
Wind: from the ESE (110 degrees) at 12 MPH (10 KT):0
Visibility: 10 mile(s):0
Sky conditions: overcast
Weather: light snow
Precipitation last hour: A trace
Temperature: 21.9 F (-5.6 C)
Windchill: 10 F (-12 C):1
Dew Point: 16.0 F (-8.9 C)
Relative Humidity: 77%
Pressure (altimeter): 30.23 in. Hg (1023 hPa)
ob: KMML 222156Z AUTO 11010KT 10SM -SN FEW028 BKN042 OVC050 M06/M09 A3023 RMK AO2 SNB56 SLPNO P0000 T10561089 FZRANO
cycle: 22

Station Type Date Time Source
KMML TAF UTC NOAA

Error!


Example: see airport list